createdAt,value
2023-04-16T00:00:33.367Z,39.88
2023-04-16T00:02:59.986Z,39.93
2023-04-16T00:05:26.650Z,39.92
2023-04-16T00:07:52.983Z,40.05
2023-04-16T00:10:19.347Z,40.08
2023-04-16T00:12:45.744Z,40.04
2023-04-16T00:15:12.140Z,39.94
2023-04-16T00:17:38.497Z,40.00
2023-04-16T00:20:04.932Z,39.90
2023-04-16T00:22:31.283Z,40.26
2023-04-16T00:24:57.653Z,40.15
2023-04-16T00:27:24.027Z,40.17
2023-04-16T00:29:50.475Z,40.07
2023-04-16T00:32:16.794Z,39.92
2023-04-16T00:34:43.168Z,40.13
2023-04-16T00:37:09.482Z,40.08
2023-04-16T00:39:35.792Z,40.16
2023-04-16T00:42:02.151Z,40.09
2023-04-16T00:44:28.591Z,40.27
2023-04-16T00:46:55.077Z,40.32
2023-04-16T00:49:21.625Z,40.30
2023-04-16T00:51:48.029Z,40.33
2023-04-16T00:54:14.352Z,40.27
2023-04-16T00:56:40.734Z,40.44
2023-04-16T00:59:07.288Z,40.58
2023-04-16T01:01:33.904Z,40.36
2023-04-16T01:04:00.433Z,40.62
2023-04-16T01:06:27.061Z,40.59
2023-04-16T01:08:53.575Z,40.47
2023-04-16T01:11:19.940Z,40.52
2023-04-16T01:13:46.260Z,40.52
2023-04-16T01:16:12.586Z,40.42
2023-04-16T01:18:38.981Z,40.70
2023-04-16T01:21:05.307Z,40.58
2023-04-16T01:23:31.707Z,40.56
2023-04-16T01:25:58.087Z,40.46
2023-04-16T01:28:24.811Z,40.75
2023-04-16T01:30:51.407Z,40.77
2023-04-16T01:33:30.412Z,40.62
2023-04-16T01:35:56.817Z,40.76
2023-04-16T01:38:23.501Z,40.76
2023-04-16T01:40:49.868Z,40.83
2023-04-16T01:43:16.657Z,40.62
2023-04-16T01:45:43.025Z,40.81
2023-04-16T01:48:11.487Z,40.68
2023-04-16T01:50:37.912Z,40.98
2023-04-16T01:53:04.381Z,40.71
2023-04-16T01:55:30.732Z,40.79
2023-04-16T01:57:57.098Z,40.77
2023-04-16T02:00:26.461Z,40.59
2023-04-16T02:02:53.166Z,40.97
2023-04-16T02:05:25.751Z,40.72
2023-04-16T02:07:52.073Z,40.96
2023-04-16T02:10:18.435Z,40.90
2023-04-16T02:12:45.378Z,41.02
2023-04-16T02:15:13.266Z,40.97
2023-04-16T02:17:39.737Z,40.85
2023-04-16T02:20:08.872Z,40.82
2023-04-16T02:22:37.961Z,41.17
2023-04-16T02:25:04.458Z,40.94
2023-04-16T02:27:31.131Z,41.04
2023-04-16T02:30:06.589Z,41.11
2023-04-16T02:32:34.794Z,40.73
2023-04-16T02:35:01.159Z,40.84
2023-04-16T02:37:27.528Z,40.76
2023-04-16T02:39:53.921Z,40.92
2023-04-16T02:42:20.359Z,40.82
2023-04-16T02:44:47.141Z,41.06
2023-04-16T02:47:13.590Z,41.02
2023-04-16T02:49:39.919Z,40.88
2023-04-16T02:52:06.284Z,41.03
2023-04-16T02:54:32.630Z,41.12
2023-04-16T02:56:58.982Z,41.05
2023-04-16T02:59:25.419Z,40.91
2023-04-16T03:01:51.898Z,41.06
2023-04-16T03:04:18.436Z,41.05
2023-04-16T03:06:44.851Z,41.01
2023-04-16T03:09:11.394Z,41.02
2023-04-16T03:11:38.632Z,40.98
2023-04-16T03:14:05.015Z,41.18
2023-04-16T03:16:31.347Z,41.18
2023-04-16T03:18:57.651Z,41.21
2023-04-16T03:21:24.022Z,41.28
2023-04-16T03:23:50.348Z,41.27
2023-04-16T03:26:16.749Z,41.14
2023-04-16T03:28:43.200Z,41.22
2023-04-16T03:31:09.593Z,40.97
2023-04-16T03:33:36.142Z,41.09
2023-04-16T03:36:03.446Z,41.31
2023-04-16T03:38:30.757Z,41.34
2023-04-16T03:40:58.578Z,41.21
2023-04-16T03:43:26.115Z,41.27
2023-04-16T03:45:52.481Z,41.09
2023-04-16T03:48:22.201Z,41.36
2023-04-16T03:50:48.644Z,41.22
2023-04-16T03:53:16.824Z,41.36
2023-04-16T03:55:43.205Z,41.39
2023-04-16T03:58:09.978Z,41.35
2023-04-16T04:00:36.371Z,41.57
2023-04-16T04:03:11.632Z,41.61
2023-04-16T04:05:38.620Z,41.19
2023-04-16T04:08:05.152Z,41.38
2023-04-16T04:10:32.177Z,41.68
2023-04-16T04:12:59.149Z,41.55
2023-04-16T04:15:25.496Z,41.42
2023-04-16T04:17:52.263Z,41.49
2023-04-16T04:20:18.666Z,41.54
2023-04-16T04:22:46.747Z,41.62
2023-04-16T04:25:13.304Z,41.74
2023-04-16T04:27:39.643Z,41.67
2023-04-16T04:30:07.320Z,41.82
2023-04-16T04:32:33.878Z,41.63
2023-04-16T04:35:00.259Z,41.47
2023-04-16T04:37:26.603Z,41.80
2023-04-16T04:39:53.115Z,42.00
2023-04-16T04:42:19.555Z,42.13
2023-04-16T04:44:45.894Z,42.04
2023-04-16T04:47:12.271Z,41.78
2023-04-16T04:49:38.610Z,42.07
2023-04-16T04:52:04.946Z,42.02
2023-04-16T04:54:31.549Z,41.79
2023-04-16T04:56:57.957Z,41.95
2023-04-16T04:59:24.450Z,41.94
2023-04-16T05:01:50.914Z,42.23
2023-04-16T05:04:17.374Z,42.23
2023-04-16T05:06:43.929Z,42.05
2023-04-16T05:09:10.532Z,42.32
2023-04-16T05:11:37.032Z,42.26
2023-04-16T05:14:03.356Z,42.08
2023-04-16T05:16:29.759Z,42.25
2023-04-16T05:18:56.120Z,42.27
2023-04-16T05:21:22.562Z,42.17
2023-04-16T05:23:48.931Z,42.11
2023-04-16T05:26:15.259Z,42.10
2023-04-16T05:28:41.564Z,42.49
2023-04-16T05:31:07.993Z,42.19
2023-04-16T05:33:34.313Z,42.10
2023-04-16T05:36:00.605Z,42.08
2023-04-16T05:38:27.104Z,42.05
2023-04-16T05:40:53.443Z,42.20
2023-04-16T05:43:19.763Z,42.26
2023-04-16T05:45:46.250Z,41.87
2023-04-16T05:48:12.611Z,42.16
2023-04-16T05:50:38.912Z,41.84
2023-04-16T05:53:05.450Z,42.14
2023-04-16T05:55:31.767Z,42.17
2023-04-16T05:57:58.116Z,41.95
2023-04-16T06:00:24.492Z,41.85
2023-04-16T06:02:50.969Z,41.84
2023-04-16T06:05:17.513Z,42.07
2023-04-16T06:07:43.906Z,41.81
2023-04-16T06:10:10.256Z,42.08
2023-04-16T06:12:36.564Z,41.94
2023-04-16T06:15:02.980Z,41.99
2023-04-16T06:17:29.310Z,41.99
2023-04-16T06:19:55.757Z,41.73
2023-04-16T06:22:22.133Z,41.60
2023-04-16T06:24:48.461Z,41.76
2023-04-16T06:27:14.821Z,41.73
2023-04-16T06:29:41.962Z,41.68
2023-04-16T06:32:08.391Z,41.72
2023-04-16T06:34:34.705Z,41.72
2023-04-16T06:37:01.057Z,41.69
2023-04-16T06:39:27.404Z,41.40
2023-04-16T06:41:53.805Z,41.30
2023-04-16T06:44:20.188Z,41.45
2023-04-16T06:46:46.545Z,41.28
2023-04-16T06:49:12.950Z,41.43
2023-04-16T06:51:39.321Z,41.19
2023-04-16T06:54:05.626Z,41.41
2023-04-16T06:56:31.992Z,41.14
2023-04-16T06:58:58.353Z,41.24
2023-04-16T07:01:24.786Z,41.20
2023-04-16T07:03:52.935Z,41.24
2023-04-16T07:06:19.461Z,41.29
2023-04-16T07:08:45.793Z,40.83
2023-04-16T07:11:12.183Z,41.15
2023-04-16T07:13:38.542Z,41.15
2023-04-16T07:16:04.892Z,40.77
2023-04-16T07:18:31.280Z,41.01
2023-04-16T07:20:57.634Z,40.85
2023-04-16T07:23:23.926Z,40.72
2023-04-16T07:25:50.326Z,40.74
2023-04-16T07:28:16.683Z,40.69
2023-04-16T07:30:42.995Z,40.60
2023-04-16T07:33:09.504Z,40.68
2023-04-16T07:35:35.873Z,40.49
2023-04-16T07:38:02.242Z,40.33
2023-04-16T07:40:28.556Z,40.25
2023-04-16T07:42:54.924Z,40.15
2023-04-16T07:45:21.252Z,40.24
2023-04-16T07:47:47.592Z,40.08
2023-04-16T07:50:13.986Z,40.03
2023-04-16T07:52:40.313Z,40.01
2023-04-16T07:55:06.671Z,39.77
2023-04-16T07:57:33.067Z,39.76
2023-04-16T07:59:59.392Z,39.59
2023-04-16T08:02:25.868Z,39.74
2023-04-16T08:04:52.602Z,39.60
2023-04-16T08:07:19.071Z,39.67
2023-04-16T08:09:45.392Z,39.27
2023-04-16T08:12:11.777Z,39.30
2023-04-16T08:14:38.089Z,39.19
2023-04-16T08:17:04.405Z,39.16
2023-04-16T08:19:30.761Z,39.10
2023-04-16T08:21:57.079Z,39.19
2023-04-16T08:24:23.436Z,39.61
2023-04-16T08:26:49.789Z,39.42
2023-04-16T08:29:16.119Z,39.05
2023-04-16T08:31:42.656Z,39.05
2023-04-16T08:34:09.155Z,38.78
2023-04-16T08:36:35.493Z,38.62
2023-04-16T08:39:01.839Z,38.84
2023-04-16T08:41:28.249Z,38.54
2023-04-16T08:43:54.568Z,38.74
2023-04-16T08:46:21.036Z,38.51
2023-04-16T08:48:47.392Z,38.39
2023-04-16T08:51:13.721Z,38.35
2023-04-16T08:53:40.015Z,38.52
2023-04-16T08:56:06.393Z,38.49
2023-04-16T08:58:32.714Z,38.50
2023-04-16T09:00:59.027Z,38.38
2023-04-16T09:03:25.527Z,38.54
2023-04-16T09:05:51.977Z,38.23
2023-04-16T09:08:18.305Z,38.23
2023-04-16T09:10:44.716Z,38.11
2023-04-16T09:13:11.160Z,38.20
2023-04-16T09:15:37.592Z,38.17
2023-04-16T09:18:04.040Z,37.91
2023-04-16T09:20:30.384Z,37.87
2023-04-16T09:22:56.704Z,37.57
2023-04-16T09:25:23.066Z,37.75
2023-04-16T09:27:49.383Z,37.73
2023-04-16T09:30:15.712Z,37.82
2023-04-16T09:32:42.145Z,37.79
2023-04-16T09:35:08.507Z,37.45
2023-04-16T09:37:34.927Z,37.56
2023-04-16T09:40:01.314Z,37.81
2023-04-16T09:42:27.683Z,37.58
2023-04-16T09:44:53.997Z,37.36
2023-04-16T09:47:20.428Z,37.40
2023-04-16T09:49:46.801Z,37.37
2023-04-16T09:52:13.135Z,37.36
2023-04-16T09:54:39.486Z,37.11
2023-04-16T14:35:11.731Z,35.98
2023-04-16T14:37:38.118Z,36.04
2023-04-16T14:40:04.525Z,35.69
2023-04-16T14:42:30.972Z,35.31
2023-04-16T14:44:57.437Z,35.20
2023-04-16T14:47:23.794Z,35.00
2023-04-16T14:49:50.331Z,34.80
2023-04-16T14:52:16.681Z,34.48
2023-04-16T14:54:43.064Z,34.34
2023-04-16T14:57:09.481Z,34.31
2023-04-16T14:59:35.800Z,34.08
2023-04-16T15:02:02.259Z,33.96
2023-04-16T15:04:28.869Z,33.88
2023-04-16T15:06:55.670Z,33.75
2023-04-16T15:09:22.154Z,33.75
2023-04-16T15:11:48.543Z,33.33
2023-04-16T15:14:14.920Z,33.24
2023-04-16T15:16:41.442Z,33.35
2023-04-16T15:19:08.060Z,33.13
2023-04-16T15:21:34.562Z,33.07
2023-04-16T15:24:00.998Z,32.88
2023-04-16T15:26:27.532Z,33.05
2023-04-16T15:28:53.958Z,32.76
2023-04-16T15:31:20.368Z,32.89
2023-04-16T15:33:46.812Z,32.84
2023-04-16T15:36:13.208Z,32.47
2023-04-16T15:38:39.551Z,32.78
2023-04-16T15:41:05.951Z,32.69
2023-04-16T15:43:32.312Z,32.68
2023-04-16T15:45:58.682Z,32.34
2023-04-16T15:48:25.162Z,32.41
2023-04-16T15:50:51.514Z,32.33
2023-04-16T15:53:17.880Z,32.14
2023-04-16T15:55:44.396Z,31.95
2023-04-16T15:58:10.805Z,31.89
2023-04-16T16:00:37.115Z,32.90
2023-04-16T16:03:03.759Z,34.64
2023-04-16T16:05:30.195Z,34.24
2023-04-16T16:07:56.528Z,33.98
2023-04-16T16:10:22.896Z,33.91
2023-04-16T16:12:49.228Z,33.87
2023-04-16T16:15:15.545Z,33.84
2023-04-16T16:17:41.957Z,33.90
2023-04-16T16:20:08.305Z,34.15
2023-04-16T16:22:34.623Z,34.26
2023-04-16T16:25:00.991Z,34.37
2023-04-16T16:27:27.303Z,34.23
2023-04-16T16:29:53.642Z,34.64
2023-04-16T16:32:20.029Z,34.76
2023-04-16T16:34:46.382Z,34.79
2023-04-16T16:37:12.695Z,35.19
2023-04-16T16:39:39.142Z,35.02
2023-04-16T16:42:05.465Z,35.31
2023-04-16T16:44:31.813Z,35.26
2023-04-16T16:46:58.225Z,35.34
2023-04-16T16:49:24.578Z,35.47
2023-04-16T16:51:50.888Z,35.41
2023-04-16T16:54:17.257Z,35.79
2023-04-16T16:56:43.571Z,35.68
2023-04-16T16:59:10.535Z,35.78
2023-04-16T17:01:37.277Z,36.17
2023-04-16T17:04:03.790Z,35.99
2023-04-16T17:06:30.243Z,36.08
2023-04-16T17:08:56.777Z,36.02
2023-04-16T17:11:23.107Z,35.97
2023-04-16T17:13:49.425Z,36.09
2023-04-16T17:16:15.876Z,35.78
2023-04-16T17:18:42.181Z,35.97
2023-04-16T17:21:08.505Z,36.04
2023-04-16T17:23:35.012Z,36.08
2023-04-16T17:26:01.318Z,36.10
2023-04-16T17:28:27.749Z,36.11
2023-04-16T17:30:54.138Z,36.12
2023-04-16T17:33:20.551Z,36.39
2023-04-16T17:35:46.906Z,36.22
2023-04-16T17:38:13.273Z,36.22
2023-04-16T17:40:39.624Z,36.34
2023-04-16T17:43:05.976Z,36.42
2023-04-16T17:45:32.323Z,36.27
2023-04-16T17:47:58.696Z,36.20
2023-04-16T17:50:25.181Z,36.43
2023-04-16T17:52:51.632Z,36.39
2023-04-16T17:55:17.909Z,36.23
2023-04-16T17:57:44.242Z,36.37
2023-04-16T18:00:10.619Z,36.21
2023-04-16T18:02:39.934Z,36.33
2023-04-16T18:05:06.431Z,36.28
2023-04-16T18:07:32.802Z,36.46
2023-04-16T18:09:59.186Z,36.71
2023-04-16T18:12:25.524Z,36.84
2023-04-16T18:14:51.978Z,36.83
2023-04-16T18:17:18.335Z,36.71
2023-04-16T18:19:44.659Z,36.67
2023-04-16T18:22:11.113Z,36.55
2023-04-16T18:24:37.425Z,36.73
2023-04-16T18:27:03.751Z,37.02
2023-04-16T18:29:30.200Z,37.28
2023-04-16T18:31:56.525Z,37.19
2023-04-16T18:34:22.912Z,37.17
2023-04-16T18:36:49.289Z,37.42
2023-04-16T18:39:15.953Z,37.03
2023-04-16T18:41:42.515Z,37.20
2023-04-16T18:44:08.879Z,37.40
2023-04-16T18:46:35.231Z,37.51
2023-04-16T18:49:01.628Z,37.70
2023-04-16T18:51:28.204Z,37.32
2023-04-16T18:53:54.516Z,37.44
2023-04-16T18:56:21.011Z,37.54
2023-04-16T18:58:47.397Z,37.50
2023-04-16T19:01:13.759Z,37.47
2023-04-16T19:03:40.192Z,37.44
2023-04-16T19:06:06.601Z,37.45
2023-04-16T19:08:32.960Z,37.64
2023-04-16T19:10:59.368Z,37.76
2023-04-16T19:13:25.773Z,37.51
2023-04-16T19:15:52.098Z,37.44
2023-04-16T19:18:18.423Z,37.69
2023-04-16T19:20:44.793Z,37.49
2023-04-16T19:23:11.100Z,37.58
2023-04-16T19:25:37.402Z,37.68
2023-04-16T19:28:03.772Z,37.58
2023-04-16T19:30:30.091Z,37.50
2023-04-16T19:32:56.450Z,37.52
2023-04-16T19:35:22.861Z,37.70
2023-04-16T19:37:49.202Z,37.80
2023-04-16T19:40:15.548Z,37.66
2023-04-16T19:42:41.933Z,37.69
2023-04-16T19:45:08.284Z,37.56
2023-04-16T19:47:34.639Z,37.64
2023-04-16T19:50:01.043Z,37.49
2023-04-16T19:52:27.497Z,37.46
2023-04-16T19:54:53.833Z,37.66
2023-04-16T19:57:20.214Z,37.74
2023-04-16T19:59:46.547Z,37.57
2023-04-16T20:02:12.921Z,37.50
2023-04-16T20:04:39.305Z,37.45
2023-04-16T20:07:05.611Z,37.73
2023-04-16T20:09:31.932Z,37.70
2023-04-16T20:11:58.303Z,37.62
2023-04-16T20:14:24.635Z,37.49
2023-04-16T20:16:51.018Z,37.51
2023-04-16T20:19:17.925Z,37.71
2023-04-16T20:21:44.237Z,37.52
2023-04-16T20:24:10.580Z,37.44
2023-04-16T20:26:36.972Z,37.68
2023-04-16T20:29:03.366Z,37.83
2023-04-16T20:31:29.836Z,37.65
2023-04-16T20:33:56.210Z,37.75
2023-04-16T20:36:22.551Z,37.62
2023-04-16T20:38:49.005Z,37.78
2023-04-16T20:41:15.364Z,37.72
2023-04-16T20:43:41.681Z,37.73
2023-04-16T20:46:08.053Z,37.69
2023-04-16T20:48:34.468Z,37.75
2023-04-16T20:51:00.991Z,37.90
2023-04-16T20:53:27.436Z,37.74
2023-04-16T20:55:53.815Z,37.83
2023-04-16T20:58:20.144Z,38.02
2023-04-16T21:00:46.461Z,38.09
2023-04-16T21:03:12.921Z,38.16
2023-04-16T21:05:39.339Z,37.98
2023-04-16T21:08:05.658Z,38.10
2023-04-16T21:10:32.036Z,38.11
2023-04-16T21:12:58.355Z,38.06
2023-04-16T21:15:24.674Z,38.10
2023-04-16T21:17:51.139Z,38.02
2023-04-16T21:20:17.608Z,38.22
2023-04-16T21:22:43.935Z,38.17
2023-04-16T21:25:10.297Z,38.27
2023-04-16T21:27:36.647Z,38.02
2023-04-16T21:30:02.961Z,38.11
2023-04-16T21:32:29.376Z,38.19
2023-04-16T21:34:55.739Z,38.32
2023-04-16T21:37:22.075Z,38.43
2023-04-16T21:39:48.425Z,38.29
2023-04-16T21:42:14.736Z,38.35
2023-04-16T21:44:41.052Z,38.31
2023-04-16T21:47:07.488Z,38.17
2023-04-16T21:49:33.933Z,38.46
2023-04-16T21:52:00.243Z,38.43
2023-04-16T21:54:26.622Z,38.37
2023-04-16T21:56:52.947Z,38.34
2023-04-16T21:59:19.281Z,38.16
2023-04-16T22:01:45.766Z,38.48
2023-04-16T22:04:12.267Z,38.14
2023-04-16T22:06:38.748Z,38.39
2023-04-16T22:09:05.188Z,38.32
2023-04-16T22:11:31.522Z,38.45
2023-04-16T22:13:57.983Z,38.50
2023-04-16T22:16:24.465Z,38.58
2023-04-16T22:18:50.849Z,38.38
2023-04-16T22:21:17.175Z,38.32
2023-04-16T22:23:43.533Z,38.59
2023-04-16T22:26:09.850Z,38.51
2023-04-16T22:28:36.180Z,38.54
2023-04-16T22:31:02.544Z,38.71
2023-04-16T22:33:28.850Z,38.50
2023-04-16T22:35:55.255Z,38.54
2023-04-16T22:38:21.658Z,38.75
2023-04-16T22:40:47.958Z,38.73
2023-04-16T22:43:14.269Z,38.73
2023-04-16T22:45:40.671Z,38.76
2023-04-16T22:48:07.173Z,38.77
2023-04-16T22:50:33.560Z,38.71
2023-04-16T22:52:59.927Z,38.95
2023-04-16T22:55:26.253Z,38.83
2023-04-16T22:57:52.584Z,38.85
2023-04-16T23:00:18.943Z,39.10
2023-04-16T23:02:45.495Z,38.99
2023-04-16T23:05:12.114Z,39.02
2023-04-16T23:07:38.558Z,38.99
2023-04-16T23:10:04.886Z,39.13
2023-04-16T23:12:31.194Z,38.97
2023-04-16T23:14:57.568Z,38.97
2023-04-16T23:17:24.015Z,39.00
2023-04-16T23:19:50.371Z,39.27
2023-04-16T23:22:16.729Z,39.27
2023-04-16T23:24:43.064Z,39.19
2023-04-16T23:27:09.427Z,39.37
2023-04-16T23:29:35.778Z,39.36
2023-04-16T23:32:02.107Z,39.24
2023-04-16T23:34:28.423Z,39.27
2023-04-16T23:36:54.817Z,39.55
2023-04-16T23:39:21.136Z,39.42
2023-04-16T23:41:47.448Z,39.28
2023-04-16T23:44:13.803Z,39.34
2023-04-16T23:46:40.168Z,39.71
2023-04-16T23:49:06.517Z,39.78
2023-04-16T23:51:32.895Z,39.76
2023-04-16T23:53:59.227Z,39.83
2023-04-16T23:56:25.620Z,39.68
2023-04-16T23:58:51.983Z,39.66
